Time;durP1;ratioP1;P1;durP2;ratioP2;P2;SDS_P1;SDS_P2;PMS_P1;PMS_P2;Temp;Humidity;BMP_temperature;BMP_pressure;BME280_temperature;BME280_humidity;BME280_pressure;Samples;Min_cycle;Max_cycle;Signal;HPM_P1;HPM_P2
2023/09/14 00:01:54;;;;;;;1.77;1.67;;;;;16.20;96431.00;;;;5057275;28;20192;-63
2023/09/14 00:04:24;;;;;;;0.83;0.83;;;;;16.10;96432.00;;;;5057848;28;20216;-62
2023/09/14 00:06:52;;;;;;;1.10;1.10;;;;;15.90;96431.00;;;;5042394;28;20656;-63
2023/09/14 00:09:20;;;;;;;1.17;1.17;;;;;15.90;96432.00;;;;5042692;28;20192;-63
2023/09/14 00:11:47;;;;;;;1.93;1.57;;;;;15.90;96435.00;;;;5043100;28;20227;-62
2023/09/14 00:14:15;;;;;;;0.90;0.90;;;;;16.00;96430.00;;;;5060840;28;20214;-63
2023/09/14 00:16:43;;;;;;;1.30;1.20;;;;;16.00;96432.00;;;;5059974;28;20195;-63
2023/09/14 00:19:10;;;;;;;1.20;1.20;;;;;16.00;96436.00;;;;5059894;28;20561;-63
2023/09/14 00:21:39;;;;;;;1.90;1.80;;;;;16.10;96442.00;;;;5060260;28;20195;-62
2023/09/14 00:24:08;;;;;;;1.93;1.83;;;;;16.10;96433.00;;;;5059897;28;20266;-63
2023/09/14 00:26:36;;;;;;;1.17;1.17;;;;;16.10;96433.00;;;;5060193;28;20682;-63
2023/09/14 00:29:03;;;;;;;1.90;1.27;;;;;16.10;96443.00;;;;5059329;28;20223;-63
2023/09/14 00:31:31;;;;;;;1.07;1.07;;;;;16.10;96441.00;;;;5060095;28;20269;-62
2023/09/14 00:33:59;;;;;;;1.33;1.33;;;;;16.10;96448.00;;;;5060045;28;20220;-63
2023/09/14 00:36:27;;;;;;;0.87;0.87;;;;;16.20;96446.00;;;;5060620;28;20207;-62
2023/09/14 00:38:54;;;;;;;1.10;1.10;;;;;16.30;96447.00;;;;5060484;28;20190;-62
2023/09/14 00:41:26;;;;;;;1.03;1.03;;;;;16.40;96435.00;;;;5042791;28;20231;-62
2023/09/14 00:43:53;;;;;;;1.00;1.00;;;;;16.40;96434.00;;;;5042197;28;20220;-62
2023/09/14 00:46:21;;;;;;;1.17;1.17;;;;;16.50;96439.00;;;;5060337;28;20199;-62
2023/09/14 00:48:49;;;;;;;1.07;1.07;;;;;16.40;96434.00;;;;5042113;28;20203;-63
2023/09/14 00:51:16;;;;;;;1.87;1.77;;;;;16.40;96444.00;;;;5059494;28;20219;-63
2023/09/14 00:53:45;;;;;;;2.50;2.27;;;;;16.50;96440.00;;;;5058846;28;20219;-63
2023/09/14 00:56:12;;;;;;;1.67;1.57;;;;;16.50;96443.00;;;;5058756;28;20192;-63
2023/09/14 00:58:41;;;;;;;2.00;1.83;;;;;16.50;96432.00;;;;5057486;28;20208;-63
2023/09/14 01:01:10;;;;;;;0.93;0.93;;;;;16.60;96447.00;;;;5057951;28;20195;-63
2023/09/14 01:03:37;;;;;;;1.63;1.53;;;;;16.60;96453.00;;;;5057313;28;20311;-62
2023/09/14 01:06:05;;;;;;;2.67;2.47;;;;;16.60;96445.00;;;;5056729;28;20183;-61
2023/09/14 01:08:33;;;;;;;1.67;1.57;;;;;16.60;96436.00;;;;5056561;28;20188;-62
2023/09/14 01:11:02;;;;;;;1.60;1.50;;;;;16.60;96444.00;;;;5037707;28;20319;-62
2023/09/14 01:13:45;;;;;;;2.27;2.17;;;;;16.60;96436.00;;;;5055482;28;20189;-61
2023/09/14 01:16:33;;;;;;;1.63;1.53;;;;;16.50;96439.00;;;;5058549;28;20181;-61
2023/09/14 01:19:11;;;;;;;1.87;1.77;;;;;16.60;96432.00;;;;5058189;28;20575;-61
2023/09/14 01:21:56;;;;;;;1.77;1.67;;;;;16.40;96438.00;;;;5057649;28;20181;-61
2023/09/14 01:24:36;;;;;;;1.13;1.13;;;;;15.90;96437.00;;;;5058005;28;20250;-62
2023/09/14 01:27:05;;;;;;;1.70;1.60;;;;;16.10;96441.00;;;;5058637;28;20180;-61
2023/09/14 01:29:32;;;;;;;1.40;1.30;;;;;16.10;96437.00;;;;5057243;28;20192;-63
2023/09/14 01:32:00;;;;;;;1.57;1.47;;;;;16.10;96433.00;;;;5057662;28;20212;-63
2023/09/14 01:34:27;;;;;;;1.03;1.03;;;;;16.10;96437.00;;;;5056683;28;20294;-63
2023/09/14 01:36:58;;;;;;;0.77;0.77;;;;;16.20;96439.00;;;;5055293;28;20198;-61
2023/09/14 01:39:27;;;;;;;1.80;1.70;;;;;16.30;96439.00;;;;5055577;28;20184;-61
2023/09/14 01:41:56;;;;;;;1.10;1.10;;;;;16.20;96447.00;;;;5057713;28;20550;-60
2023/09/14 01:44:26;;;;;;;3.07;1.60;;;;;16.20;96438.00;;;;5057642;28;20208;-60
2023/09/14 01:46:54;;;;;;;1.43;1.43;;;;;16.10;96440.00;;;;5058027;28;20630;-62
2023/09/14 01:49:27;;;;;;;1.60;1.37;;;;;16.20;96442.00;;;;5057261;28;20210;-62
2023/09/14 01:51:55;;;;;;;1.73;1.63;;;;;16.30;96446.00;;;;5056686;28;20610;-63
2023/09/14 01:54:22;;;;;;;1.87;1.77;;;;;16.30;96445.00;;;;5056107;28;20215;-63
2023/09/14 01:56:50;;;;;;;1.67;1.57;;;;;16.20;96448.00;;;;5055884;28;20203;-63
2023/09/14 01:59:17;;;;;;;1.87;1.77;;;;;16.20;96450.00;;;;5055170;28;20567;-63
2023/09/14 02:01:46;;;;;;;1.90;1.70;;;;;16.20;96441.00;;;;5054759;28;20619;-63
2023/09/14 02:04:13;;;;;;;2.93;2.63;;;;;16.30;96447.00;;;;5055023;28;20220;-64
2023/09/14 02:06:41;;;;;;;1.90;1.80;;;;;16.30;96451.00;;;;5058555;28;20192;-63
2023/09/14 02:09:09;;;;;;;3.13;2.83;;;;;16.40;96441.00;;;;5058612;28;20501;-63
2023/09/14 02:11:36;;;;;;;2.40;2.23;;;;;16.30;96444.00;;;;5057780;28;20368;-62
2023/09/14 02:14:04;;;;;;;2.20;2.07;;;;;16.40;96444.00;;;;5057932;28;20414;-62
2023/09/14 02:16:32;;;;;;;2.47;2.33;;;;;16.40;96444.00;;;;5058619;28;20188;-62
2023/09/14 02:19:00;;;;;;;2.07;1.90;;;;;16.50;96443.00;;;;5040717;28;20223;-62
2023/09/14 02:21:28;;;;;;;3.57;3.23;;;;;16.30;96434.00;;;;5058216;28;20196;-63
2023/09/14 02:23:57;;;;;;;2.20;2.10;;;;;16.40;96444.00;;;;5040393;28;20222;-63
2023/09/14 02:26:24;;;;;;;2.37;2.27;;;;;16.40;96436.00;;;;5058444;28;20282;-63
2023/09/14 02:28:51;;;;;;;2.47;2.30;;;;;16.30;96443.00;;;;5057417;28;20263;-63
2023/09/14 02:31:19;;;;;;;1.83;1.73;;;;;16.20;96445.00;;;;5040105;28;20224;-63
2023/09/14 02:33:46;;;;;;;2.43;2.23;;;;;16.10;96438.00;;;;5058176;28;20262;-63
2023/09/14 02:36:15;;;;;;;1.63;1.30;;;;;16.20;96447.00;;;;5058917;28;20196;-63
2023/09/14 02:38:44;;;;;;;2.23;2.03;;;;;16.10;96440.00;;;;5057905;28;20558;-63
2023/09/14 02:41:11;;;;;;;2.23;2.13;;;;;16.10;96446.00;;;;5058158;28;20238;-63
2023/09/14 02:43:38;;;;;;;1.90;1.80;;;;;16.20;96445.00;;;;5058020;28;20212;-63
2023/09/14 02:46:06;;;;;;;1.60;1.50;;;;;16.30;96448.00;;;;5058035;28;20215;-63
2023/09/14 02:48:33;;;;;;;1.77;1.63;;;;;16.30;96447.00;;;;5057673;28;20198;-63
2023/09/14 02:51:00;;;;;;;2.47;2.27;;;;;16.40;96446.00;;;;5057868;28;20192;-63
2023/09/14 02:53:29;;;;;;;3.27;2.23;;;;;16.40;96449.00;;;;5057701;28;20563;-63
2023/09/14 02:55:56;;;;;;;3.80;2.00;;;;;16.40;96453.00;;;;5057376;28;20215;-63
2023/09/14 02:58:24;;;;;;;3.63;2.70;;;;;16.50;96456.00;;;;5058017;28;20195;-63
2023/09/14 03:00:51;;;;;;;3.20;2.90;;;;;16.50;96445.00;;;;5057755;28;20211;-63
2023/09/14 03:03:19;;;;;;;1.47;1.33;;;;;16.50;96454.00;;;;5039540;28;20205;-63
2023/09/14 03:05:48;;;;;;;2.10;2.00;;;;;16.50;96450.00;;;;5057846;28;20188;-63
2023/09/14 03:08:15;;;;;;;1.70;1.60;;;;;16.40;96457.00;;;;5057366;28;20196;-63
2023/09/14 03:10:46;;;;;;;2.17;2.07;;;;;16.40;96451.00;;;;5057529;28;20192;-63
2023/09/14 03:13:14;;;;;;;2.40;2.20;;;;;16.50;96452.00;;;;5057577;28;20196;-63
2023/09/14 03:15:41;;;;;;;2.23;2.13;;;;;16.50;96450.00;;;;5057942;28;20203;-63
2023/09/14 03:18:10;;;;;;;2.77;2.60;;;;;16.50;96453.00;;;;5057884;28;20192;-63
2023/09/14 03:20:38;;;;;;;1.93;1.83;;;;;16.50;96450.00;;;;5057564;28;20283;-63
2023/09/14 03:23:06;;;;;;;2.70;2.33;;;;;16.60;96457.00;;;;5057372;28;20180;-63
2023/09/14 03:25:33;;;;;;;1.37;1.37;;;;;16.60;96456.00;;;;5056942;28;20214;-63
2023/09/14 03:28:05;;;;;;;1.93;1.83;;;;;16.40;96459.00;;;;5057412;28;20181;-63
2023/09/14 03:30:33;;;;;;;2.67;2.47;;;;;16.30;96455.00;;;;5057254;28;20255;-63
2023/09/14 03:33:01;;;;;;;1.87;1.77;;;;;16.40;96453.00;;;;5057751;28;20212;-63
2023/09/14 03:35:28;;;;;;;3.30;1.90;;;;;16.40;96443.00;;;;5057363;28;20234;-63
2023/09/14 03:37:56;;;;;;;0.90;0.90;;;;;16.40;96449.00;;;;5058521;28;20184;-63
2023/09/14 03:40:23;;;;;;;2.40;2.27;;;;;16.50;96457.00;;;;5063707;28;20203;-63
2023/09/14 03:42:51;;;;;;;1.57;1.47;;;;;16.50;96453.00;;;;5065498;28;20486;-64
2023/09/14 03:45:19;;;;;;;2.07;1.97;;;;;16.40;96450.00;;;;5063587;28;20218;-63
2023/09/14 03:47:49;;;;;;;2.03;1.93;;;;;16.40;96454.00;;;;5043060;28;20208;-63
2023/09/14 03:50:16;;;;;;;2.07;1.97;;;;;16.40;96445.00;;;;5061194;28;20657;-63
2023/09/14 03:52:45;;;;;;;1.50;1.50;;;;;16.40;96450.00;;;;5060980;28;20217;-63
2023/09/14 03:55:14;;;;;;;2.27;2.17;;;;;16.20;96447.00;;;;5060518;28;20215;-63
2023/09/14 03:57:46;;;;;;;1.60;1.50;;;;;16.30;96447.00;;;;5060746;28;20310;-64
2023/09/14 04:00:15;;;;;;;2.50;2.33;;;;;16.20;96448.00;;;;5061302;28;20267;-63
2023/09/14 04:02:44;;;;;;;3.27;2.37;;;;;16.10;96453.00;;;;5060883;28;20188;-63
2023/09/14 04:05:13;;;;;;;2.20;2.10;;;;;16.20;96455.00;;;;5060772;28;20212;-63
2023/09/14 04:07:41;;;;;;;1.40;1.40;;;;;16.20;96452.00;;;;5060697;28;20191;-63
2023/09/14 04:10:10;;;;;;;1.93;1.83;;;;;16.10;96451.00;;;;5060606;28;20203;-63
2023/09/14 04:12:38;;;;;;;1.87;1.77;;;;;16.20;96452.00;;;;5060244;28;20286;-63
2023/09/14 04:15:10;;;;;;;2.37;2.07;;;;;16.20;96460.00;;;;5061034;28;20207;-63
2023/09/14 04:17:38;;;;;;;1.53;1.47;;;;;16.30;96457.00;;;;5060474;28;20275;-63
2023/09/14 04:20:09;;;;;;;5.50;1.43;;;;;16.40;96455.00;;;;5060383;28;20199;-63
2023/09/14 04:22:37;;;;;;;1.60;1.50;;;;;16.40;96461.00;;;;5060556;28;20533;-63
2023/09/14 04:25:06;;;;;;;1.63;1.53;;;;;16.30;96458.00;;;;5042537;28;20270;-63
2023/09/14 04:27:36;;;;;;;1.57;1.47;;;;;16.20;96464.00;;;;5061584;28;20204;-63
2023/09/14 04:30:08;;;;;;;1.70;1.60;;;;;16.30;96460.00;;;;5064546;28;20215;-63
2023/09/14 04:32:35;;;;;;;1.73;1.63;;;;;16.30;96463.00;;;;5063085;28;20223;-63
2023/09/14 04:35:03;;;;;;;1.87;1.77;;;;;16.20;96467.00;;;;5062473;28;20302;-63
2023/09/14 04:37:37;;;;;;;1.73;1.63;;;;;16.20;96465.00;;;;5060701;28;20196;-63
2023/09/14 04:40:09;;;;;;;2.60;1.73;;;;;16.20;96471.00;;;;5060081;28;20565;-63
2023/09/14 04:42:36;;;;;;;1.93;1.83;;;;;16.10;96468.00;;;;5060242;28;20227;-63
2023/09/14 04:45:05;;;;;;;2.80;2.60;;;;;16.20;96483.00;;;;5059707;28;20219;-63
2023/09/14 04:47:33;;;;;;;1.67;1.57;;;;;16.20;96471.00;;;;5059627;28;20254;-63
2023/09/14 04:50:03;;;;;;;3.00;1.57;;;;;16.10;96476.00;;;;5059083;28;20682;-63
2023/09/14 04:52:32;;;;;;;2.67;2.47;;;;;16.20;96480.00;;;;5059504;28;20234;-63
2023/09/14 04:54:59;;;;;;;1.20;1.20;;;;;16.20;96483.00;;;;5059942;28;20227;-63
2023/09/14 04:57:26;;;;;;;1.77;1.67;;;;;16.20;96474.00;;;;5042031;28;20200;-63
2023/09/14 04:59:54;;;;;;;2.00;1.90;;;;;16.10;96480.00;;;;5059645;28;20199;-63
2023/09/14 05:02:21;;;;;;;1.67;1.57;;;;;15.90;96479.00;;;;5059481;28;20199;-62
2023/09/14 05:04:50;;;;;;;2.27;2.17;;;;;16.00;96480.00;;;;5042660;28;20250;-62
2023/09/14 05:07:17;;;;;;;2.37;2.27;;;;;16.10;96486.00;;;;5059938;28;20670;-62
2023/09/14 05:09:46;;;;;;;9.30;2.43;;;;;16.30;96483.00;;;;5059881;28;20195;-62
2023/09/14 05:12:15;;;;;;;2.53;2.37;;;;;16.30;96477.00;;;;5060368;28;20713;-62
2023/09/14 05:14:43;;;;;;;2.37;2.27;;;;;16.40;96468.00;;;;5059895;28;20230;-63
2023/09/14 05:17:10;;;;;;;2.83;2.63;;;;;16.40;96480.00;;;;5042519;28;20196;-63
2023/09/14 05:19:44;;;;;;;2.37;2.27;;;;;16.30;96478.00;;;;5059784;28;20195;-62
2023/09/14 05:22:12;;;;;;;2.50;2.40;;;;;16.30;96477.00;;;;5041179;28;20173;-63
2023/09/14 05:24:40;;;;;;;3.13;2.93;;;;;16.20;96478.00;;;;5059426;28;20212;-62
2023/09/14 05:27:09;;;;;;;15.73;2.20;;;;;16.30;96489.00;;;;5058873;28;20202;-63
2023/09/14 05:29:38;;;;;;;1.63;1.53;;;;;16.20;96486.00;;;;5059252;28;20595;-63
2023/09/14 05:32:06;;;;;;;3.40;2.43;;;;;16.20;96490.00;;;;5041195;28;20235;-64
2023/09/14 05:34:34;;;;;;;3.50;3.20;;;;;16.30;96483.00;;;;5057485;28;20222;-65
2023/09/14 05:37:02;;;;;;;2.53;2.00;;;;;16.10;96487.00;;;;5057560;28;20283;-66
2023/09/14 05:39:29;;;;;;;2.07;1.97;;;;;15.90;96479.00;;;;5039683;28;20201;-61
2023/09/14 05:41:57;;;;;;;1.30;1.30;;;;;16.00;96478.00;;;;5058829;28;20618;-61
2023/09/14 05:44:28;;;;;;;5.83;2.30;;;;;16.00;96495.00;;;;5039989;28;20595;-62
2023/09/14 05:46:55;;;;;;;2.70;2.50;;;;;16.00;96487.00;;;;5040591;28;20547;-62
2023/09/14 05:49:23;;;;;;;2.30;2.20;;;;;16.00;96485.00;;;;5058155;28;20643;-61
2023/09/14 05:51:50;;;;;;;2.40;2.30;;;;;16.30;96495.00;;;;5058141;28;20199;-61
2023/09/14 05:54:17;;;;;;;2.97;2.77;;;;;16.00;96499.00;;;;5058507;28;20222;-62
2023/09/14 05:56:45;;;;;;;3.07;2.87;;;;;16.10;96494.00;;;;5058260;28;20227;-62
2023/09/14 05:59:12;;;;;;;7.17;3.20;;;;;16.20;96491.00;;;;5058219;28;20235;-62
2023/09/14 06:01:44;;;;;;;2.10;1.90;;;;;16.10;96503.00;;;;5057755;28;20199;-62
2023/09/14 06:04:11;;;;;;;2.90;2.70;;;;;15.90;96500.00;;;;5058432;28;20226;-62
2023/09/14 06:06:41;;;;;;;3.10;2.80;;;;;16.10;96504.00;;;;5058652;28;20219;-62
2023/09/14 06:09:08;;;;;;;2.73;2.53;;;;;16.00;96494.00;;;;5058878;28;20196;-62
2023/09/14 06:11:40;;;;;;;3.37;2.90;;;;;16.10;96501.00;;;;5040411;28;20203;-62
2023/09/14 06:14:07;;;;;;;2.93;2.73;;;;;16.00;96500.00;;;;5058300;28;20250;-62
2023/09/14 06:16:42;;;;;;;2.37;2.27;;;;;15.80;96473.00;;;;5058532;28;20255;-62
2023/09/14 06:19:11;;;;;;;3.00;2.30;;;;;15.90;96504.00;;;;5058868;28;20180;-62
2023/09/14 06:21:40;;;;;;;2.70;2.50;;;;;16.00;96511.00;;;;5058353;28;20199;-62
2023/09/14 06:24:07;;;;;;;2.93;2.73;;;;;16.20;96508.00;;;;5040471;28;20243;-62
2023/09/14 06:26:35;;;;;;;2.53;2.27;;;;;16.40;96507.00;;;;5058278;28;20188;-62
2023/09/14 06:29:02;;;;;;;1.80;1.70;;;;;16.50;96510.00;;;;5058666;28;20203;-62
2023/09/14 06:31:30;;;;;;;2.63;2.43;;;;;16.60;96515.00;;;;5040188;28;20200;-61
2023/09/14 06:34:00;;;;;;;2.87;2.67;;;;;16.70;96513.00;;;;5058024;28;20226;-62
2023/09/14 06:36:27;;;;;;;1.80;1.70;;;;;16.60;96514.00;;;;5058524;28;20210;-61
2023/09/14 06:38:55;;;;;;;1.93;1.83;;;;;16.60;96508.00;;;;5057741;28;20192;-60
2023/09/14 06:41:22;;;;;;;2.13;1.97;;;;;16.60;96514.00;;;;5057571;28;20204;-60
2023/09/14 06:43:50;;;;;;;2.67;2.47;;;;;16.70;96507.00;;;;5057684;28;20212;-61
2023/09/14 06:46:19;;;;;;;5.00;3.23;;;;;16.60;96512.00;;;;5042691;28;20198;-60
2023/09/14 06:48:46;;;;;;;2.90;2.33;;;;;16.50;96519.00;;;;5059965;28;20203;-60
2023/09/14 06:51:18;;;;;;;2.67;2.47;;;;;16.60;96510.00;;;;5039304;28;20226;-60
2023/09/14 06:53:46;;;;;;;2.30;2.10;;;;;16.40;96512.00;;;;5056677;28;20220;-61
2023/09/14 06:56:15;;;;;;;2.87;2.67;;;;;16.30;96517.00;;;;5055830;28;20192;-61
2023/09/14 06:58:42;;;;;;;1.83;1.73;;;;;16.40;96516.00;;;;5037551;28;20250;-61
2023/09/14 07:01:12;;;;;;;1.97;1.43;;;;;16.60;96509.00;;;;5055929;28;20242;-60
2023/09/14 07:03:40;;;;;;;2.03;1.93;;;;;16.70;96514.00;;;;5056449;28;20215;-60
2023/09/14 07:06:07;;;;;;;2.33;2.23;;;;;16.90;96519.00;;;;5056404;28;20284;-60
2023/09/14 07:08:40;;;;;;;2.53;1.73;;;;;16.80;96509.00;;;;5056884;28;20195;-61
2023/09/14 07:11:08;;;;;;;2.70;2.47;;;;;16.70;96517.00;;;;5056756;28;20188;-61
2023/09/14 07:13:35;;;;;;;3.57;2.10;;;;;16.80;96518.00;;;;5058643;28;20250;-62
2023/09/14 07:16:04;;;;;;;1.90;1.80;;;;;16.70;96517.00;;;;5064312;28;20222;-61
2023/09/14 07:18:33;;;;;;;2.20;1.47;;;;;16.60;96510.00;;;;5066907;28;20187;-61
2023/09/14 07:21:02;;;;;;;3.37;3.17;;;;;16.80;96521.00;;;;5066994;28;20196;-61
2023/09/14 07:23:31;;;;;;;2.03;1.93;;;;;16.90;96519.00;;;;5065045;28;20216;-61
2023/09/14 07:26:00;;;;;;;2.00;1.90;;;;;16.60;96528.00;;;;5063029;28;20194;-62
2023/09/14 07:28:27;;;;;;;1.87;1.77;;;;;16.70;96521.00;;;;5063179;28;20249;-62
2023/09/14 07:30:55;;;;;;;16.20;2.77;;;;;16.70;96512.00;;;;5062935;28;20258;-61
2023/09/14 07:33:25;;;;;;;3.37;3.07;;;;;16.70;96518.00;;;;5062893;28;20269;-62
2023/09/14 07:35:53;;;;;;;2.50;2.40;;;;;16.50;96516.00;;;;5044858;28;20647;-62
2023/09/14 07:38:21;;;;;;;3.07;2.87;;;;;16.70;96518.00;;;;5062812;28;20223;-61
2023/09/14 07:40:49;;;;;;;2.03;1.93;;;;;16.80;96530.00;;;;5063420;28;20667;-61
2023/09/14 07:43:20;;;;;;;3.20;3.00;;;;;16.70;96525.00;;;;5062559;28;20627;-61
2023/09/14 07:45:48;;;;;;;1.73;1.63;;;;;16.80;96520.00;;;;5061547;28;20235;-61
2023/09/14 07:48:16;;;;;;;2.37;2.27;;;;;16.90;96521.00;;;;5044200;28;20215;-61
2023/09/14 07:50:45;;;;;;;2.17;2.07;;;;;17.10;96528.00;;;;5062436;28;20203;-61
2023/09/14 07:53:12;;;;;;;2.17;2.07;;;;;17.20;96538.00;;;;5062498;28;20325;-62
2023/09/14 07:55:40;;;;;;;1.93;1.83;;;;;17.20;96535.00;;;;5062310;28;20255;-62
2023/09/14 07:58:07;;;;;;;2.87;2.60;;;;;17.30;96536.00;;;;5062307;28;20255;-62
2023/09/14 08:00:36;;;;;;;3.80;2.63;;;;;17.50;96530.00;;;;5062387;28;20297;-62
2023/09/14 08:03:04;;;;;;;3.13;2.83;;;;;17.60;96541.00;;;;5062388;28;20204;-62
2023/09/14 08:05:31;;;;;;;2.63;2.30;;;;;17.20;96541.00;;;;5062145;28;20267;-62
2023/09/14 08:07:59;;;;;;;2.03;1.93;;;;;17.30;96536.00;;;;5062228;28;20270;-62
2023/09/14 08:10:26;;;;;;;2.00;1.90;;;;;17.50;96542.00;;;;5063148;28;20204;-61
2023/09/14 08:12:54;;;;;;;2.07;1.90;;;;;17.60;96544.00;;;;5062180;28;20215;-61
2023/09/14 08:15:21;;;;;;;3.47;2.27;;;;;17.80;96540.00;;;;5062153;28;20576;-62
2023/09/14 08:17:50;;;;;;;1.80;1.70;;;;;18.00;96544.00;;;;5062175;28;20668;-61
2023/09/14 08:20:18;;;;;;;1.70;1.60;;;;;18.30;96537.00;;;;5062292;28;20196;-63
2023/09/14 08:22:45;;;;;;;2.07;1.97;;;;;18.50;96537.00;;;;5061685;28;20605;-62
2023/09/14 08:25:15;;;;;;;2.57;2.37;;;;;18.60;96542.00;;;;5060413;28;20216;-62
2023/09/14 08:27:43;;;;;;;2.70;1.40;;;;;18.80;96548.00;;;;5058998;28;20250;-61
2023/09/14 08:30:12;;;;;;;3.03;2.10;;;;;19.00;96544.00;;;;5040417;28;20196;-61
2023/09/14 08:32:39;;;;;;;2.03;1.90;;;;;19.20;96543.00;;;;5058727;28;20754;-62
2023/09/14 08:35:24;;;;;;;2.53;2.33;;;;;19.50;96547.00;;;;5059023;28;20294;-63
2023/09/14 08:37:52;;;;;;;2.13;1.97;;;;;19.60;96551.00;;;;5058643;28;20223;-62
2023/09/14 08:40:20;;;;;;;1.60;1.50;;;;;19.70;96550.00;;;;5058287;28;20658;-62
2023/09/14 08:42:51;;;;;;;2.30;2.20;;;;;19.60;96549.00;;;;5058215;28;20196;-62
2023/09/14 08:45:25;;;;;;;2.70;2.03;;;;;19.70;96549.00;;;;5058099;28;20219;-62
2023/09/14 08:47:53;;;;;;;2.17;1.90;;;;;19.30;96551.00;;;;5058153;28;20183;-62
2023/09/14 08:50:27;;;;;;;2.20;2.10;;;;;19.30;96555.00;;;;5058515;28;20196;-62
2023/09/14 08:52:58;;;;;;;2.50;2.30;;;;;19.30;96555.00;;;;5058461;28;20226;-62
2023/09/14 08:55:29;;;;;;;2.33;1.90;;;;;19.20;96556.00;;;;5058026;28;20216;-62
2023/09/14 08:57:57;;;;;;;3.60;2.77;;;;;19.30;96551.00;;;;5058002;28;20270;-62
2023/09/14 09:00:28;;;;;;;1.43;1.37;;;;;19.50;96547.00;;;;5039894;28;20180;-61
2023/09/14 09:02:57;;;;;;;1.87;1.77;;;;;19.70;96542.00;;;;5059559;28;20180;-61
2023/09/14 09:05:27;;;;;;;7.57;2.63;;;;;19.90;96546.00;;;;5059581;28;20212;-61
2023/09/14 09:07:56;;;;;;;1.23;1.20;;;;;19.80;96547.00;;;;5059504;28;20245;-61
2023/09/14 09:10:26;;;;;;;1.97;1.87;;;;;19.80;96544.00;;;;5041278;28;20198;-61
2023/09/14 09:12:55;;;;;;;1.60;1.50;;;;;19.60;96540.00;;;;5059106;28;20238;-61
2023/09/14 09:15:24;;;;;;;1.80;1.70;;;;;19.50;96543.00;;;;5058357;28;20646;-62
2023/09/14 09:17:54;;;;;;;1.87;1.77;;;;;19.50;96538.00;;;;5058041;28;20193;-62
2023/09/14 09:20:23;;;;;;;1.37;1.30;;;;;19.60;96533.00;;;;5057885;28;20647;-62
2023/09/14 09:22:57;;;;;;;1.50;1.40;;;;;19.90;96533.00;;;;5057310;28;20259;-61
2023/09/14 09:25:24;;;;;;;2.17;2.00;;;;;20.20;96538.00;;;;5057149;28;20294;-62
2023/09/14 09:27:59;;;;;;;1.70;1.60;;;;;20.50;96539.00;;;;5058178;28;20220;-62
2023/09/14 09:30:31;;;;;;;1.60;1.50;;;;;20.90;96535.00;;;;5057723;28;20188;-61
2023/09/14 09:33:00;;;;;;;1.70;1.57;;;;;20.90;96540.00;;;;5058252;28;20259;-61
2023/09/14 09:35:29;;;;;;;1.93;1.73;;;;;21.00;96537.00;;;;5057563;28;20620;-63
2023/09/14 09:38:00;;;;;;;1.30;1.20;;;;;20.90;96536.00;;;;5056485;28;20192;-61
2023/09/14 09:40:33;;;;;;;1.80;1.70;;;;;20.90;96533.00;;;;5057448;28;20188;-62
2023/09/14 09:43:07;;;;;;;1.70;1.57;;;;;20.60;96538.00;;;;5057839;28;20180;-61
2023/09/14 09:45:39;;;;;;;1.87;1.77;;;;;20.70;96534.00;;;;5057270;28;20212;-61
2023/09/14 09:48:08;;;;;;;0.90;0.90;;;;;21.20;96533.00;;;;5039346;28;20188;-60
2023/09/14 09:50:36;;;;;;;2.60;1.83;;;;;21.10;96536.00;;;;5057689;28;20239;-60
2023/09/14 09:53:10;;;;;;;1.50;1.40;;;;;21.20;96527.00;;;;5057181;28;20243;-61
2023/09/14 09:55:38;;;;;;;1.67;1.57;;;;;21.30;96521.00;;;;5057268;28;20184;-61
2023/09/14 09:58:08;;;;;;;1.53;1.47;;;;;21.20;96509.00;;;;5056865;28;20192;-61
2023/09/14 10:00:39;;;;;;;1.60;1.20;;;;;21.70;96511.00;;;;5057377;28;20180;-62
2023/09/14 10:03:06;;;;;;;1.65;1.38;;;;;22.00;96513.00;;;;5039019;28;20291;-62
2023/09/14 10:05:38;;;;;;;1.30;1.20;;;;;22.50;96508.00;;;;5056681;28;20307;-61
2023/09/14 10:08:18;;;;;;;1.40;1.30;;;;;22.20;96518.00;;;;5056785;28;20183;-62
2023/09/14 10:10:50;;;;;;;1.38;1.27;;;;;22.40;96508.00;;;;5057351;28;20172;-62
2023/09/14 10:13:21;;;;;;;0.80;0.80;;;;;22.60;96505.00;;;;5055400;28;20619;-62
2023/09/14 10:15:51;;;;;;;2.50;0.93;;;;;23.00;96504.00;;;;5055733;28;20243;-62
2023/09/14 10:18:21;;;;;;;1.40;1.30;;;;;23.10;96500.00;;;;5055326;28;20251;-63
2023/09/14 10:20:51;;;;;;;0.90;0.90;;;;;22.50;96492.00;;;;5055043;28;20191;-62
2023/09/14 10:23:21;;;;;;;1.73;1.63;;;;;22.90;96493.00;;;;5054962;28;20194;-62
2023/09/14 10:25:50;;;;;;;0.95;0.95;;;;;23.10;96498.00;;;;5055585;28;20185;-61
2023/09/14 10:28:20;;;;;;;0.88;0.88;;;;;22.90;96491.00;;;;5056258;28;20203;-61
2023/09/14 10:30:49;;;;;;;1.10;1.08;;;;;23.20;96486.00;;;;5057447;28;20192;-61
2023/09/14 10:33:17;;;;;;;1.13;1.10;;;;;23.50;96504.00;;;;5056694;28;20203;-62
2023/09/14 10:35:44;;;;;;;1.23;1.23;;;;;23.60;96496.00;;;;5037998;28;20667;-62
2023/09/14 10:38:13;;;;;;;1.10;1.10;;;;;23.80;96494.00;;;;5055890;28;20203;-61
2023/09/14 10:40:43;;;;;;;0.90;0.90;;;;;23.20;96504.00;;;;5056036;28;20200;-62
2023/09/14 10:43:11;;;;;;;0.93;0.93;;;;;23.30;96497.00;;;;5056391;28;20509;-62
2023/09/14 10:45:43;;;;;;;1.17;1.08;;;;;23.60;96491.00;;;;5056344;28;20200;-63
2023/09/14 10:48:16;;;;;;;0.77;0.77;;;;;23.80;96484.00;;;;5056490;28;20191;-62
2023/09/14 10:50:44;;;;;;;1.23;1.15;;;;;23.90;96497.00;;;;5038599;28;20371;-62
2023/09/14 10:53:13;;;;;;;3.40;1.60;;;;;23.80;96501.00;;;;5056253;28;20184;-63
2023/09/14 10:55:43;;;;;;;1.90;1.33;;;;;23.90;96490.00;;;;5056249;28;20247;-62
2023/09/14 10:58:15;;;;;;;0.73;0.73;;;;;24.00;96470.00;;;;5056652;28;20204;-62
2023/09/14 11:00:43;;;;;;;4.07;1.45;;;;;24.50;96478.00;;;;5056355;28;20187;-63
2023/09/14 11:03:12;;;;;;;2.03;1.67;;;;;24.30;96472.00;;;;5056592;28;20227;-62
2023/09/14 11:05:42;;;;;;;1.40;1.30;;;;;24.30;96491.00;;;;5056170;28;20188;-62
2023/09/14 11:08:10;;;;;;;1.00;1.00;;;;;24.40;96486.00;;;;5056804;28;20200;-67
2023/09/14 11:10:38;;;;;;;1.08;1.08;;;;;24.10;96466.00;;;;5055593;28;20198;-62
2023/09/14 11:13:32;;;;;;;1.10;1.10;;;;;24.10;96491.00;;;;5055041;28;20596;-63
2023/09/14 11:16:16;;;;;;;0.68;0.68;;;;;23.90;96499.00;;;;5038123;28;20196;-62
2023/09/14 11:18:55;;;;;;;0.85;0.85;;;;;23.80;96489.00;;;;5055728;28;20749;-63
2023/09/14 11:21:43;;;;;;;0.85;0.85;;;;;23.50;96491.00;;;;5055280;28;20214;-62
2023/09/14 11:24:12;;;;;;;1.13;1.05;;;;;23.20;96494.00;;;;5054583;28;20288;-63
2023/09/14 11:26:49;;;;;;;0.90;0.90;;;;;23.20;96491.00;;;;5037027;28;20196;-62
2023/09/14 11:29:18;;;;;;;0.85;0.85;;;;;22.90;96492.00;;;;5055296;28;20194;-62
2023/09/14 11:31:56;;;;;;;1.05;1.05;;;;;22.80;96490.00;;;;5054617;28;20203;-62
2023/09/14 11:34:24;;;;;;;0.95;0.95;;;;;22.50;96487.00;;;;5054633;28;20215;-62
2023/09/14 11:36:54;;;;;;;0.60;0.60;;;;;22.50;96478.00;;;;5054742;28;20199;-62
2023/09/14 11:39:22;;;;;;;0.70;0.70;;;;;22.40;96484.00;;;;5054768;28;20200;-62
2023/09/14 11:42:00;;;;;;;0.95;0.95;;;;;22.40;96490.00;;;;5055007;28;20655;-62
2023/09/14 11:44:29;;;;;;;0.70;0.70;;;;;22.30;96489.00;;;;5054846;28;20218;-62
2023/09/14 11:46:59;;;;;;;0.95;0.88;;;;;22.20;96492.00;;;;5055206;28;20193;-62
2023/09/14 11:49:30;;;;;;;1.10;1.10;;;;;22.10;96480.00;;;;5054525;28;20184;-62
2023/09/14 11:51:58;;;;;;;3.33;1.70;;;;;22.00;96485.00;;;;5054853;28;20196;-62
2023/09/14 11:54:30;;;;;;;0.68;0.68;;;;;21.80;96478.00;;;;5055133;28;20272;-63
2023/09/14 11:57:09;;;;;;;0.90;0.90;;;;;21.90;96483.00;;;;5054964;28;20659;-62
2023/09/14 11:59:37;;;;;;;1.50;1.40;;;;;22.00;96483.00;;;;5054523;28;20200;-62
2023/09/14 12:02:05;;;;;;;1.15;1.15;;;;;22.00;96478.00;;;;5058232;28;20223;-62
2023/09/14 12:04:33;;;;;;;0.85;0.85;;;;;22.10;96484.00;;;;5058472;28;20208;-63
2023/09/14 12:07:00;;;;;;;1.05;1.05;;;;;22.00;96483.00;;;;5058479;28;20196;-62
2023/09/14 12:09:35;;;;;;;1.15;1.05;;;;;22.10;96477.00;;;;5058844;28;20282;-62
2023/09/14 12:12:03;;;;;;;0.88;0.88;;;;;22.30;96479.00;;;;5058625;28;20245;-63
2023/09/14 12:14:43;;;;;;;1.02;0.98;;;;;22.60;96469.00;;;;5040015;28;20223;-62
2023/09/14 12:17:21;;;;;;;0.75;0.75;;;;;22.80;96477.00;;;;5058708;28;20693;-63
2023/09/14 12:19:54;;;;;;;0.60;0.60;;;;;22.90;96475.00;;;;5058337;28;20287;-62
2023/09/14 12:22:25;;;;;;;1.05;1.02;;;;;23.20;96456.00;;;;5058423;28;20192;-62
2023/09/14 12:24:53;;;;;;;2.08;1.10;;;;;23.70;96466.00;;;;5058275;28;20666;-62
2023/09/14 12:27:21;;;;;;;1.85;1.65;;;;;24.00;96472.00;;;;5057850;28;20192;-63
2023/09/14 12:29:51;;;;;;;0.80;0.80;;;;;24.40;96464.00;;;;5058542;28;20251;-62